Time,TemperatureF,DewpointF,PressureIn,WindDirection,WindDirectionDegrees,WindSpeedMPH,WindSpeedGustMPH,Humidity,HourlyPrecipIn,Conditions,Clouds,dailyrainin,SolarRadiationWatts/m^2,SoftwareType,DateUTC
2013-03-18 00:09:00,28.2,17.2,29.68,East,85,3.0,5.0,63,0.00,CLR,OVC,0.00,0.0,WeatherDisplay:10.37,2013-03-17 23:09:00,
2013-03-18 00:20:00,28.0,17.1,29.65,East,97,7.0,7.0,63,0.00,CLR,OVC,0.00,0.0,WeatherDisplay:10.37,2013-03-17 23:20:00,
2013-03-18 00:29:00,28.0,17.1,29.65,East,86,6.0,7.0,63,0.00,CLR,OVC,0.00,0.0,WeatherDisplay:10.37,2013-03-17 23:29:00,
2013-03-18 00:39:00,27.9,16.9,29.65,ENE,71,6.0,6.0,63,0.00,CLR,OVC,0.00,0.0,WeatherDisplay:10.37,2013-03-17 23:39:00,
2013-03-18 00:49:00,27.9,16.9,29.65,East,101,10.0,10.0,63,0.00,CLR,OVC,0.00,0.0,WeatherDisplay:10.37,2013-03-17 23:49:00,
2013-03-18 00:59:00,27.9,16.9,29.65,East,101,6.0,10.0,63,0.00,CLR,OVC,0.00,0.0,WeatherDisplay:10.37,2013-03-17 23:59:00,
2013-03-18 01:09:00,27.9,17.3,29.65,East,87,6.0,6.0,64,0.00,CLR,OVC,0.00,0.0,WeatherDisplay:10.37,2013-03-18 00:09:00,
2013-03-18 01:19:00,27.5,16.9,29.65,ESE,108,1.0,6.0,64,0.00,CLR,OVC,0.00,0.0,WeatherDisplay:10.37,2013-03-18 00:19:00,
2013-03-18 01:29:00,27.5,16.9,29.65,ESE,105,3.0,3.0,64,0.00,CLR,OVC,0.00,0.0,WeatherDisplay:10.37,2013-03-18 00:29:00,
2013-03-18 01:39:00,27.5,17.3,29.65,SSE,150,5.0,6.0,65,0.00,CLR,OVC,0.00,0.0,WeatherDisplay:10.37,2013-03-18 00:39:00,
2013-03-18 01:49:00,27.9,17.6,29.65,SE,126,8.0,8.0,65,0.00,CLR,OVC,0.00,0.0,WeatherDisplay:10.37,2013-03-18 00:49:00,
2013-03-18 01:59:00,27.9,17.6,29.65,East,101,7.0,8.0,65,0.00,CLR,OVC,0.00,0.0,WeatherDisplay:10.37,2013-03-18 00:59:00,
2013-03-18 02:09:00,27.7,17.4,29.65,ESE,112,3.0,6.0,65,0.00,CLR,OVC,0.00,0.0,WeatherDisplay:10.37,2013-03-18 01:09:00,
2013-03-18 02:19:00,27.9,17.6,29.65,ESE,117,5.0,5.0,65,0.00,CLR,OVC,0.00,0.0,WeatherDisplay:10.37,2013-03-18 01:19:00,
2013-03-18 02:29:00,27.9,17.6,29.65,SE,135,5.0,5.0,65,0.00,CLR,OVC,0.00,0.0,WeatherDisplay:10.37,2013-03-18 01:29:00,
2013-03-18 02:39:00,27.9,17.6,29.65,SSE,150,5.0,5.0,65,0.00,CLR,OVC,0.00,0.0,WeatherDisplay:10.37,2013-03-18 01:39:00,
2013-03-18 02:49:00,28.2,18.0,29.65,SSW,195,6.0,7.0,65,0.00,CLR,OVC,0.00,0.0,WeatherDisplay:10.37,2013-03-18 01:49:00,
2013-03-18 02:59:00,28.2,18.0,29.65,SSW,203,5.0,6.0,65,0.00,CLR,OVC,0.00,0.0,WeatherDisplay:10.37,2013-03-18 01:59:00,
2013-03-18 03:09:00,28.2,18.0,29.65,SSW,198,8.0,8.0,65,0.00,CLR,OVC,0.00,0.0,WeatherDisplay:10.37,2013-03-18 02:09:00,
2013-03-18 03:20:00,28.0,17.8,29.62,SW,231,5.0,8.0,65,0.00,CLR,OVC,0.00,0.0,WeatherDisplay:10.37,2013-03-18 02:20:00,
2013-03-18 03:29:00,27.9,17.6,29.62,SW,219,1.0,5.0,65,0.00,CLR,OVC,0.00,0.0,WeatherDisplay:10.37,2013-03-18 02:29:00,
2013-03-18 03:39:00,27.7,17.4,29.62,ENE,75,3.0,4.0,65,0.00,CLR,OVC,0.00,0.0,WeatherDisplay:10.37,2013-03-18 02:39:00,
2013-03-18 03:49:00,27.7,17.4,29.62,ESE,108,5.0,5.0,65,0.00,CLR,OVC,0.00,0.0,WeatherDisplay:10.37,2013-03-18 02:49:00,
2013-03-18 03:59:00,27.7,17.4,29.62,SE,128,5.0,5.0,65,0.00,CLR,OVC,0.00,0.0,WeatherDisplay:10.37,2013-03-18 02:59:00,
2013-03-18 04:09:00,27.9,17.6,29.62,ESE,122,1.0,5.0,65,0.00,CLR,OVC,0.00,0.0,WeatherDisplay:10.37,2013-03-18 03:09:00,
2013-03-18 04:19:00,27.9,17.6,29.62,ENE,68,5.0,6.0,65,0.00,CLR,OVC,0.00,0.0,WeatherDisplay:10.37,2013-03-18 03:19:00,
2013-03-18 04:29:00,27.9,17.6,29.62,ENE,65,5.0,5.0,65,0.00,CLR,OVC,0.00,0.0,WeatherDisplay:10.37,2013-03-18 03:29:00,
2013-03-18 04:39:00,27.9,18.0,29.62,ESE,113,5.0,5.0,66,0.00,CLR,OVC,0.00,0.0,WeatherDisplay:10.37,2013-03-18 03:39:00,
2013-03-18 04:49:00,27.5,17.6,29.59,ESE,120,5.0,5.0,66,0.00,CLR,OVC,0.00,0.0,WeatherDisplay:10.37,2013-03-18 03:49:00,
2013-03-18 04:59:00,27.5,17.6,29.59,ESE,117,5.0,5.0,66,0.00,CLR,OVC,0.00,0.0,WeatherDisplay:10.37,2013-03-18 03:59:00,
2013-03-18 05:10:00,27.1,17.3,29.59,East,88,2.0,4.0,66,0.00,CLR,OVC,0.00,0.0,WeatherDisplay:10.37,2013-03-18 04:10:00,
2013-03-18 05:20:00,27.0,17.5,29.59,ESE,102,5.0,5.0,67,0.00,CLR,OVC,0.00,0.0,WeatherDisplay:10.37,2013-03-18 04:20:00,
2013-03-18 05:29:00,27.0,17.5,29.59,ESE,103,6.0,6.0,67,0.00,CLR,OVC,0.00,0.0,WeatherDisplay:10.37,2013-03-18 04:29:00,
2013-03-18 05:39:00,26.8,17.3,29.59,SSE,155,1.0,6.0,67,0.00,CLR,OVC,0.00,0.0,WeatherDisplay:10.37,2013-03-18 04:39:00,
2013-03-18 05:49:00,26.8,17.3,29.59,SE,125,3.0,5.0,67,0.00,CLR,OVC,0.00,0.0,WeatherDisplay:10.37,2013-03-18 04:49:00,
2013-03-18 05:59:00,26.6,17.1,29.59,ESE,114,3.0,3.0,67,0.00,OVC,OVC,0.00,0.0,WeatherDisplay:10.37,2013-03-18 04:59:00,
2013-03-18 06:09:00,26.2,16.8,29.59,ESE,106,3.0,4.0,67,0.00,OVC,OVC,0.00,0.0,WeatherDisplay:10.37,2013-03-18 05:09:00,
2013-03-18 06:19:00,26.1,16.6,29.59,East,91,5.0,5.0,67,0.00,OVC,OVC,0.00,0.0,WeatherDisplay:10.37,2013-03-18 05:19:00,
2013-03-18 06:29:00,25.9,16.8,29.59,East,84,2.0,5.0,68,0.00,OVC,OVC,0.00,0.0,WeatherDisplay:10.37,2013-03-18 05:29:00,
2013-03-18 06:39:00,25.9,16.8,29.59,East,85,0.0,2.0,68,0.00,OVC,OVC,0.00,0.0,WeatherDisplay:10.37,2013-03-18 05:39:00,
2013-03-18 06:49:00,26.1,16.9,29.59,ESE,106,0.0,3.0,68,0.00,OVC,OVC,0.00,0.0,WeatherDisplay:10.37,2013-03-18 05:49:00,
2013-03-18 06:59:00,26.2,17.1,29.59,East,97,2.0,2.0,68,0.00,OVC,OVC,0.00,0.0,WeatherDisplay:10.37,2013-03-18 05:59:00,
2013-03-18 07:09:00,26.6,17.5,29.59,ESE,102,0.0,0.0,68,0.00,OVC,OVC,0.00,0.0,WeatherDisplay:10.37,2013-03-18 06:09:00,
2013-03-18 07:19:00,27.5,18.3,29.56,ESE,102,2.0,5.0,68,0.00,OVC,OVC,0.00,0.0,WeatherDisplay:10.37,2013-03-18 06:19:00,
2013-03-18 07:29:00,27.9,18.7,29.56,ESE,117,3.0,4.0,68,0.00,OVC,OVC,0.00,0.0,WeatherDisplay:10.37,2013-03-18 06:29:00,
2013-03-18 07:39:00,29.8,19.9,29.56,ESE,113,3.0,4.0,66,0.00,OVC,OVC,0.00,0.0,WeatherDisplay:10.37,2013-03-18 06:39:00,
2013-03-18 07:49:00,30.7,20.0,29.56,ESE,105,3.0,4.0,64,0.00,OVC,OVC,0.00,0.0,WeatherDisplay:10.37,2013-03-18 06:49:00,
2013-03-18 07:59:00,30.6,19.8,29.56,East,96,3.0,4.0,64,0.00,OVC,OVC,0.00,0.0,WeatherDisplay:10.37,2013-03-18 06:59:00,
2013-03-18 08:09:00,31.5,20.3,29.56,East,87,5.0,5.0,63,0.00,OVC,OVC,0.00,0.0,WeatherDisplay:10.37,2013-03-18 07:09:00,
2013-03-18 08:19:00,31.5,20.3,29.56,East,82,6.0,7.0,63,0.00,OVC,OVC,0.00,0.0,WeatherDisplay:10.37,2013-03-18 07:19:00,
2013-03-18 08:29:00,32.0,20.8,29.56,ENE,65,6.0,6.0,63,0.00,OVC,OVC,0.00,0.0,WeatherDisplay:10.37,2013-03-18 07:29:00,
2013-03-18 08:39:00,32.0,20.8,29.56,East,85,3.0,7.0,63,0.00,OVC,OVC,0.00,0.0,WeatherDisplay:10.37,2013-03-18 07:39:00,
2013-03-18 08:49:00,32.4,21.2,29.53,East,90,5.0,7.0,63,0.00,OVC,OVC,0.00,0.0,WeatherDisplay:10.37,2013-03-18 07:49:00,
2013-03-18 08:59:00,33.1,21.5,29.53,ESE,102,3.0,5.0,62,0.00,OVC,OVC,0.00,0.0,WeatherDisplay:10.37,2013-03-18 07:59:00,
2013-03-18 09:09:00,33.4,21.4,29.53,SE,130,6.0,6.0,61,0.00,OVC,OVC,0.00,0.0,WeatherDisplay:10.37,2013-03-18 08:09:00,
2013-03-18 09:19:00,34.2,22.1,29.53,East,80,6.0,7.0,61,0.00,OVC,OVC,0.00,0.0,WeatherDisplay:10.37,2013-03-18 08:19:00,
2013-03-18 09:29:00,34.0,21.9,29.53,NE,49,7.0,7.0,61,0.00,OVC,OVC,0.00,0.0,WeatherDisplay:10.37,2013-03-18 08:29:00,
2013-03-18 09:39:00,34.5,22.4,29.53,NE,50,7.0,7.0,61,0.00,OVC,OVC,0.00,0.0,WeatherDisplay:10.37,2013-03-18 08:39:00,
2013-03-18 09:49:00,35.4,22.9,29.53,ESE,109,2.0,7.0,60,0.00,OVC,OVC,0.00,0.0,WeatherDisplay:10.37,2013-03-18 08:49:00,
2013-03-18 09:59:00,35.4,22.9,29.53,East,99,9.0,9.0,60,0.00,OVC,OVC,0.00,0.0,WeatherDisplay:10.37,2013-03-18 08:59:00,
2013-03-18 10:09:00,35.1,22.6,29.50,East,90,9.0,10.0,60,0.00,OVC,OVC,0.00,0.0,WeatherDisplay:10.37,2013-03-18 09:09:00,
2013-03-18 10:19:00,35.2,22.7,29.50,East,79,7.0,11.0,60,0.00,OVC,OVC,0.00,0.0,WeatherDisplay:10.37,2013-03-18 09:19:00,
2013-03-18 10:29:00,35.4,22.9,29.50,East,80,6.0,7.0,60,0.00,OVC,OVC,0.00,0.0,WeatherDisplay:10.37,2013-03-18 09:29:00,
2013-03-18 10:39:00,35.4,22.9,29.50,ESE,105,6.0,9.0,60,0.00,OVC,OVC,0.00,0.0,WeatherDisplay:10.37,2013-03-18 09:39:00,
2013-03-18 10:49:00,35.4,22.9,29.50,East,97,7.0,8.0,60,0.00,OVC,OVC,0.00,0.0,WeatherDisplay:10.37,2013-03-18 09:49:00,
2013-03-18 10:59:00,36.3,23.3,29.50,East,90,8.0,8.0,59,0.00,OVC,OVC,0.00,0.0,WeatherDisplay:10.37,2013-03-18 09:59:00,
2013-03-18 11:09:00,36.3,22.9,29.50,East,85,7.0,11.0,58,0.00,OVC,OVC,0.00,0.0,WeatherDisplay:10.37,2013-03-18 10:09:00,
2013-03-18 11:19:00,37.9,24.0,29.50,ENE,72,9.0,9.0,57,0.00,OVC,OVC,0.00,0.0,WeatherDisplay:10.37,2013-03-18 10:19:00,
2013-03-18 11:29:00,37.8,23.9,29.50,ENE,70,8.0,9.0,57,0.00,OVC,OVC,0.00,0.0,WeatherDisplay:10.37,2013-03-18 10:29:00,
2013-03-18 11:39:00,37.4,23.5,29.47,ESE,113,8.0,8.0,57,0.00,OVC,OVC,0.00,0.0,WeatherDisplay:10.37,2013-03-18 10:39:00,
2013-03-18 11:49:00,37.9,24.0,29.47,SE,128,8.0,8.0,57,0.00,OVC,OVC,0.00,0.0,WeatherDisplay:10.37,2013-03-18 10:49:00,
2013-03-18 11:59:00,37.6,23.7,29.47,ESE,117,9.0,10.0,57,0.00,OVC,OVC,0.00,0.0,WeatherDisplay:10.37,2013-03-18 10:59:00,
2013-03-18 12:09:00,38.3,24.4,29.47,East,86,7.0,9.0,57,0.00,OVC,OVC,0.00,0.0,WeatherDisplay:10.37,2013-03-18 11:09:00,
2013-03-18 12:19:00,39.0,25.1,29.47,ENE,68,12.0,12.0,57,0.00,OVC,OVC,0.00,0.0,WeatherDisplay:10.37,2013-03-18 11:19:00,
2013-03-18 12:29:00,38.3,24.4,29.47,ENE,58,10.0,12.0,57,0.00,OVC,OVC,0.00,0.0,WeatherDisplay:10.37,2013-03-18 11:29:00,
2013-03-18 12:39:00,38.5,24.6,29.44,NE,50,8.0,10.0,57,0.00,OVC,OVC,0.00,0.0,WeatherDisplay:10.37,2013-03-18 11:39:00,
2013-03-18 12:49:00,38.5,25.0,29.44,East,100,7.0,8.0,58,0.00,OVC,OVC,0.00,0.0,WeatherDisplay:10.37,2013-03-18 11:49:00,
2013-03-18 12:59:00,38.5,25.0,29.44,ESE,116,8.0,8.0,58,0.00,OVC,OVC,0.00,0.0,WeatherDisplay:10.37,2013-03-18 11:59:00,
2013-03-18 13:09:00,37.6,24.5,29.44,SE,142,7.0,9.0,59,0.00,FEW,OVC,0.00,0.0,WeatherDisplay:10.37,2013-03-18 12:09:00,
2013-03-18 13:19:00,36.9,24.7,29.44,SE,132,9.0,9.0,61,0.00,FEW,OVC,0.00,0.0,WeatherDisplay:10.37,2013-03-18 12:19:00,
2013-03-18 13:29:00,36.9,25.8,29.44,SSE,153,5.0,9.0,64,0.00,FEW,OVC,0.00,0.0,WeatherDisplay:10.37,2013-03-18 12:29:00,
2013-03-18 13:39:00,35.6,25.7,29.44,South,180,3.0,10.0,67,0.00,FEW,OVC,0.00,0.0,WeatherDisplay:10.37,2013-03-18 12:39:00,
2013-03-18 13:49:00,35.6,26.1,29.41,SE,137,7.0,7.0,68,0.00,FEW,OVC,0.00,0.0,WeatherDisplay:10.37,2013-03-18 12:49:00,
2013-03-18 13:59:00,35.1,25.9,29.41,SSE,148,12.0,12.0,69,0.00,FEW,OVC,0.00,0.0,WeatherDisplay:10.37,2013-03-18 12:59:00,
2013-03-18 14:09:00,34.9,26.1,29.41,SSE,150,5.0,8.0,70,0.00,SCT,OVC,0.00,0.0,WeatherDisplay:10.37,2013-03-18 13:09:00,
2013-03-18 14:19:00,34.5,25.7,29.41,ESE,119,10.0,11.0,70,0.00,SCT,OVC,0.00,0.0,WeatherDisplay:10.37,2013-03-18 13:19:00,
2013-03-18 14:29:00,34.2,25.7,29.41,ESE,105,6.0,10.0,71,0.00,SCT,OVC,0.00,0.0,WeatherDisplay:10.37,2013-03-18 13:29:00,
2013-03-18 14:39:00,34.3,26.2,29.38,ESE,105,5.0,8.0,72,0.00,SCT,OVC,0.00,0.0,WeatherDisplay:10.37,2013-03-18 13:39:00,
2013-03-18 14:49:00,34.3,26.2,29.38,ESE,107,6.0,7.0,72,0.00,SCT,OVC,0.00,0.0,WeatherDisplay:10.37,2013-03-18 13:49:00,
2013-03-18 14:59:00,34.0,26.2,29.38,ESE,110,5.0,6.0,73,0.00,SCT,OVC,0.00,0.0,WeatherDisplay:10.37,2013-03-18 13:59:00,
2013-03-18 15:09:00,33.8,26.4,29.38,East,90,5.0,5.0,74,0.00,BKN,OVC,0.01,0.0,WeatherDisplay:10.37,2013-03-18 14:09:00,
2013-03-18 15:19:00,34.0,26.6,29.38,ESE,111,8.0,8.0,74,0.00,BKN,OVC,0.01,0.0,WeatherDisplay:10.37,2013-03-18 14:19:00,
2013-03-18 15:29:00,33.8,26.4,29.38,ESE,118,6.0,8.0,74,0.00,BKN,OVC,0.01,0.0,WeatherDisplay:10.37,2013-03-18 14:29:00,
2013-03-18 15:39:00,33.4,26.4,29.38,ENE,63,3.0,6.0,75,0.00,BKN,OVC,0.01,0.0,WeatherDisplay:10.37,2013-03-18 14:39:00,
2013-03-18 15:49:00,33.3,26.2,29.35,ENE,65,5.0,6.0,75,0.00,BKN,OVC,0.01,0.0,WeatherDisplay:10.37,2013-03-18 14:49:00,
2013-03-18 15:59:00,33.1,26.0,29.35,ENE,73,6.0,6.0,75,0.01,RA,OVC,0.02,0.0,WeatherDisplay:10.37,2013-03-18 14:59:00,
2013-03-18 16:09:00,32.7,25.7,29.35,East,85,5.0,7.0,75,0.00,-RA,OVC,0.02,0.0,WeatherDisplay:10.37,2013-03-18 15:09:00,
2013-03-18 16:19:00,32.5,25.8,29.35,East,98,5.0,6.0,76,0.00,-RA,OVC,0.02,0.0,WeatherDisplay:10.37,2013-03-18 15:19:00,
2013-03-18 16:29:00,32.5,25.8,29.35,ESE,119,5.0,5.0,76,0.00,-RA,OVC,0.02,0.0,WeatherDisplay:10.37,2013-03-18 15:29:00,
2013-03-18 16:39:00,32.4,25.6,29.35,East,95,7.0,7.0,76,0.00,-RA,OVC,0.02,0.0,WeatherDisplay:10.37,2013-03-18 15:39:00,
2013-03-18 16:49:00,32.5,25.8,29.35,ESE,102,5.0,7.0,76,0.00,-RA,OVC,0.02,0.0,WeatherDisplay:10.37,2013-03-18 15:49:00,
2013-03-18 16:59:00,32.5,25.8,29.35,East,90,6.0,6.0,76,0.00,-RA,OVC,0.02,0.0,WeatherDisplay:10.37,2013-03-18 15:59:00,
2013-03-18 17:09:00,32.5,25.8,29.32,ENE,68,5.0,5.0,76,0.00,-SN,OVC,0.02,0.0,WeatherDisplay:10.37,2013-03-18 16:09:00,
2013-03-18 17:19:00,32.4,25.3,29.32,ENE,71,5.0,5.0,75,0.01,-SN,OVC,0.03,0.0,WeatherDisplay:10.37,2013-03-18 16:19:00,
2013-03-18 17:29:00,32.4,25.3,29.32,ENE,62,9.0,9.0,75,0.00,-SN,OVC,0.03,0.0,WeatherDisplay:10.37,2013-03-18 16:29:00,
2013-03-18 17:39:00,32.0,25.0,29.32,East,90,6.0,9.0,75,0.00,-SN,OVC,0.03,0.0,WeatherDisplay:10.37,2013-03-18 16:39:00,
2013-03-18 17:49:00,31.6,24.9,29.32,ENE,75,7.0,7.0,76,0.00,-SN,OVC,0.03,0.0,WeatherDisplay:10.37,2013-03-18 16:49:00,
2013-03-18 17:59:00,31.5,24.8,29.32,ENE,58,5.0,7.0,76,0.00,-SN,OVC,0.03,0.0,WeatherDisplay:10.37,2013-03-18 16:59:00,
2013-03-18 18:09:00,31.3,24.6,29.32,East,91,5.0,6.0,76,0.00,-SN,OVC,0.03,0.0,WeatherDisplay:10.37,2013-03-18 17:09:00,
2013-03-18 18:19:00,30.9,24.2,29.32,SSE,152,5.0,5.0,76,0.00,-SN,OVC,0.03,0.0,WeatherDisplay:10.37,2013-03-18 17:19:00,
2013-03-18 18:29:00,30.9,24.2,29.32,SSE,160,3.0,5.0,76,0.00,-SN,OVC,0.03,0.0,WeatherDisplay:10.37,2013-03-18 17:29:00,
2013-03-18 18:39:00,30.9,24.2,29.29,ESE,115,5.0,5.0,76,0.00,-SN,OVC,0.03,0.0,WeatherDisplay:10.37,2013-03-18 17:39:00,
2013-03-18 18:49:00,30.9,24.6,29.32,ESE,103,5.0,5.0,77,0.00,-SN,OVC,0.03,0.0,WeatherDisplay:10.37,2013-03-18 17:49:00,
2013-03-18 18:59:00,30.7,24.4,29.32,ESE,106,5.0,5.0,77,0.00,-SN,OVC,0.03,0.0,WeatherDisplay:10.37,2013-03-18 17:59:00,
2013-03-18 19:09:00,30.7,24.4,29.29,ESE,108,5.0,5.0,77,0.00,-SN,OVC,0.03,0.0,WeatherDisplay:10.37,2013-03-18 18:09:00,
2013-03-18 19:19:00,30.7,24.4,29.29,East,97,5.0,6.0,77,0.00,-SN,OVC,0.03,0.0,WeatherDisplay:10.37,2013-03-18 18:19:00,
2013-03-18 19:30:00,30.6,24.2,29.29,East,101,6.0,6.0,77,0.00,-SN,OVC,0.03,0.0,WeatherDisplay:10.37,2013-03-18 18:30:00,
2013-03-18 19:39:00,30.4,24.0,29.29,ESE,102,5.0,6.0,77,0.00,-SN,OVC,0.03,0.0,WeatherDisplay:10.37,2013-03-18 18:39:00,
2013-03-18 19:49:00,30.4,24.3,29.29,ESE,105,5.0,5.0,78,0.00,-SN,OVC,0.03,0.0,WeatherDisplay:10.37,2013-03-18 18:49:00,
2013-03-18 19:59:00,30.2,24.2,29.29,ESE,114,5.0,5.0,78,0.00,-SN,OVC,0.03,0.0,WeatherDisplay:10.37,2013-03-18 18:59:00,
2013-03-18 20:09:00,30.2,24.2,29.29,ESE,103,5.0,5.0,78,0.00,-SN,OVC,0.03,0.0,WeatherDisplay:10.37,2013-03-18 19:09:00,
2013-03-18 20:19:00,30.2,24.2,29.29,East,99,3.0,5.0,78,0.00,-SN,OVC,0.03,0.0,WeatherDisplay:10.37,2013-03-18 19:19:00,
2013-03-18 20:29:00,30.0,24.0,29.29,East,90,5.0,5.0,78,0.00,-SN,OVC,0.03,0.0,WeatherDisplay:10.37,2013-03-18 19:29:00,
2013-03-18 20:39:00,29.8,23.8,29.29,East,97,6.0,7.0,78,0.00,-SN,OVC,0.03,0.0,WeatherDisplay:10.37,2013-03-18 19:39:00,
2013-03-18 20:49:00,29.7,23.6,29.29,East,83,6.0,7.0,78,0.00,-SN,OVC,0.03,0.0,WeatherDisplay:10.37,2013-03-18 19:49:00,
2013-03-18 20:59:00,29.5,23.5,29.29,ESE,104,5.0,6.0,78,0.00,-SN,OVC,0.03,0.0,WeatherDisplay:10.37,2013-03-18 19:59:00,
2013-03-18 21:09:00,29.5,23.5,29.26,ESE,102,7.0,7.0,78,0.00,-SN,OVC,0.03,0.0,WeatherDisplay:10.37,2013-03-18 20:09:00,
2013-03-18 21:19:00,29.7,23.6,29.26,East,93,5.0,7.0,78,0.00,-SN,OVC,0.03,0.0,WeatherDisplay:10.37,2013-03-18 20:19:00,
2013-03-18 21:29:00,29.7,23.6,29.26,ESE,105,3.0,5.0,78,0.00,-SN,OVC,0.03,0.0,WeatherDisplay:10.37,2013-03-18 20:29:00,
2013-03-18 21:39:00,29.7,23.6,29.26,ESE,104,5.0,6.0,78,0.00,-SN,OVC,0.03,0.0,WeatherDisplay:10.37,2013-03-18 20:39:00,
2013-03-18 21:49:00,29.8,23.8,29.26,ESE,104,5.0,6.0,78,0.00,-SN,OVC,0.03,0.0,WeatherDisplay:10.37,2013-03-18 20:49:00,
2013-03-18 21:59:00,29.8,23.8,29.26,East,95,3.0,5.0,78,0.00,-SN,OVC,0.03,0.0,WeatherDisplay:10.37,2013-03-18 20:59:00,
2013-03-18 22:09:00,29.8,23.8,29.26,East,98,5.0,5.0,78,0.00,-SN,OVC,0.03,0.0,WeatherDisplay:10.37,2013-03-18 21:09:00,
2013-03-18 22:19:00,29.8,23.8,29.26,ESE,104,3.0,5.0,78,0.00,-SN,OVC,0.03,0.0,WeatherDisplay:10.37,2013-03-18 21:19:00,
2013-03-18 22:29:00,29.8,23.8,29.26,East,98,0.0,3.0,78,0.00,-SN,OVC,0.03,0.0,WeatherDisplay:10.37,2013-03-18 21:29:00,
2013-03-18 22:39:00,29.8,23.8,29.26,East,97,0.0,0.0,78,0.00,-SN,OVC,0.03,0.0,WeatherDisplay:10.37,2013-03-18 21:39:00,
2013-03-18 22:49:00,29.8,23.8,29.24,East,100,0.0,0.0,78,0.00,-SN,OVC,0.03,0.0,WeatherDisplay:10.37,2013-03-18 21:49:00,
2013-03-18 22:59:00,29.8,23.8,29.24,East,88,0.0,0.0,78,0.00,-SN,OVC,0.03,0.0,WeatherDisplay:10.37,2013-03-18 21:59:00,
2013-03-18 23:09:00,29.8,23.8,29.24,ENE,75,0.0,0.0,78,0.00,-SN,OVC,0.03,0.0,WeatherDisplay:10.37,2013-03-18 22:09:00,
2013-03-18 23:19:00,30.0,24.0,29.24,ESE,109,0.0,0.0,78,0.00,-SN,OVC,0.03,0.0,WeatherDisplay:10.37,2013-03-18 22:19:00,
2013-03-18 23:29:00,30.0,24.0,29.24,East,101,0.0,0.0,78,0.00,-SN,OVC,0.03,0.0,WeatherDisplay:10.37,2013-03-18 22:29:00,
2013-03-18 23:39:00,29.8,24.1,29.24,East,82,0.0,0.0,79,0.00,-SN,OVC,0.03,0.0,WeatherDisplay:10.37,2013-03-18 22:39:00,
2013-03-18 23:49:00,30.0,24.0,29.24,ESE,122,0.0,0.0,78,0.00,-SN,OVC,0.03,0.0,WeatherDisplay:10.37,2013-03-18 22:49:00,
2013-03-18 23:59:00,30.0,24.3,29.24,ESE,113,0.0,0.0,79,0.00,-SN,OVC,0.00,0.0,WeatherDisplay:10.37,2013-03-18 22:59:00,